sensor_id;sensor_type;location;lat;lon;timestamp;P1;durP1;ratioP1;P2;durP2;ratioP2
62848;SDS011;48941;49.516;8.286;2024-03-02T00:00:41;16.58;;;9.93;;
62848;SDS011;48941;49.516;8.286;2024-03-02T00:03:10;16.95;;;10.27;;
62848;SDS011;48941;49.516;8.286;2024-03-02T00:05:40;16.98;;;10.32;;
62848;SDS011;48941;49.516;8.286;2024-03-02T00:08:08;17.55;;;10.70;;
62848;SDS011;48941;49.516;8.286;2024-03-02T00:10:37;17.15;;;10.57;;
62848;SDS011;48941;49.516;8.286;2024-03-02T00:13:07;17.67;;;11.25;;
62848;SDS011;48941;49.516;8.286;2024-03-02T00:15:40;18.63;;;11.55;;
62848;SDS011;48941;49.516;8.286;2024-03-02T00:18:12;20.50;;;11.35;;
62848;SDS011;48941;49.516;8.286;2024-03-02T00:20:41;22.38;;;11.68;;
62848;SDS011;48941;49.516;8.286;2024-03-02T00:23:09;19.58;;;11.25;;
62848;SDS011;48941;49.516;8.286;2024-03-02T00:25:42;17.73;;;11.35;;
62848;SDS011;48941;49.516;8.286;2024-03-02T00:28:15;18.45;;;11.57;;
62848;SDS011;48941;49.516;8.286;2024-03-02T00:30:56;21.65;;;12.00;;
62848;SDS011;48941;49.516;8.286;2024-03-02T00:33:27;20.67;;;12.15;;
62848;SDS011;48941;49.516;8.286;2024-03-02T00:38:26;19.70;;;11.88;;
62848;SDS011;48941;49.516;8.286;2024-03-02T00:40:55;21.27;;;11.88;;
62848;SDS011;48941;49.516;8.286;2024-03-02T00:46:18;19.63;;;12.07;;
62848;SDS011;48941;49.516;8.286;2024-03-02T00:48:54;19.58;;;12.45;;
62848;SDS011;48941;49.516;8.286;2024-03-02T00:51:24;19.13;;;11.75;;
62848;SDS011;48941;49.516;8.286;2024-03-02T00:53:53;18.27;;;12.38;;
62848;SDS011;48941;49.516;8.286;2024-03-02T00:56:23;19.73;;;11.85;;
62848;SDS011;48941;49.516;8.286;2024-03-02T00:58:52;18.20;;;11.88;;
62848;SDS011;48941;49.516;8.286;2024-03-02T01:01:21;18.98;;;11.48;;
62848;SDS011;48941;49.516;8.286;2024-03-02T01:03:49;19.50;;;11.77;;
62848;SDS011;48941;49.516;8.286;2024-03-02T01:06:19;24.27;;;12.38;;
62848;SDS011;48941;49.516;8.286;2024-03-02T01:08:46;22.60;;;12.60;;
62848;SDS011;48941;49.516;8.286;2024-03-02T01:11:18;17.92;;;11.85;;
62848;SDS011;48941;49.516;8.286;2024-03-02T01:13:49;22.45;;;13.25;;
62848;SDS011;48941;49.516;8.286;2024-03-02T01:16:17;21.50;;;12.63;;
62848;SDS011;48941;49.516;8.286;2024-03-02T01:18:45;24.10;;;13.80;;
62848;SDS011;48941;49.516;8.286;2024-03-02T01:21:13;24.85;;;13.60;;
62848;SDS011;48941;49.516;8.286;2024-03-02T01:23:42;22.02;;;13.25;;
62848;SDS011;48941;49.516;8.286;2024-03-02T01:26:10;23.85;;;14.27;;
62848;SDS011;48941;49.516;8.286;2024-03-02T01:28:38;23.23;;;13.77;;
62848;SDS011;48941;49.516;8.286;2024-03-02T01:31:06;21.20;;;13.43;;
62848;SDS011;48941;49.516;8.286;2024-03-02T01:33:34;22.25;;;12.60;;
62848;SDS011;48941;49.516;8.286;2024-03-02T01:36:02;21.48;;;12.48;;
62848;SDS011;48941;49.516;8.286;2024-03-02T01:38:30;23.23;;;13.82;;
62848;SDS011;48941;49.516;8.286;2024-03-02T01:40:59;20.92;;;13.13;;
62848;SDS011;48941;49.516;8.286;2024-03-02T01:43:27;23.85;;;13.15;;
62848;SDS011;48941;49.516;8.286;2024-03-02T01:45:55;24.95;;;14.30;;
62848;SDS011;48941;49.516;8.286;2024-03-02T01:48:24;26.45;;;14.15;;
62848;SDS011;48941;49.516;8.286;2024-03-02T01:50:51;27.13;;;14.15;;
62848;SDS011;48941;49.516;8.286;2024-03-02T01:53:19;23.88;;;14.23;;
62848;SDS011;48941;49.516;8.286;2024-03-02T01:55:47;29.65;;;14.07;;
62848;SDS011;48941;49.516;8.286;2024-03-02T01:58:16;28.23;;;14.05;;
62848;SDS011;48941;49.516;8.286;2024-03-02T02:00:44;23.38;;;13.73;;
62848;SDS011;48941;49.516;8.286;2024-03-02T02:03:12;25.15;;;13.40;;
62848;SDS011;48941;49.516;8.286;2024-03-02T02:05:41;19.02;;;12.25;;
62848;SDS011;48941;49.516;8.286;2024-03-02T02:08:09;20.08;;;12.93;;
62848;SDS011;48941;49.516;8.286;2024-03-02T02:10:37;20.13;;;12.23;;
62848;SDS011;48941;49.516;8.286;2024-03-02T02:13:05;19.27;;;11.40;;
62848;SDS011;48941;49.516;8.286;2024-03-02T02:15:36;19.30;;;12.52;;
62848;SDS011;48941;49.516;8.286;2024-03-02T02:18:04;18.98;;;12.48;;
62848;SDS011;48941;49.516;8.286;2024-03-02T02:20:32;22.48;;;11.43;;
62848;SDS011;48941;49.516;8.286;2024-03-02T02:23:01;20.38;;;11.93;;
62848;SDS011;48941;49.516;8.286;2024-03-02T02:25:31;20.90;;;12.27;;
62848;SDS011;48941;49.516;8.286;2024-03-02T02:28:00;18.92;;;12.07;;
62848;SDS011;48941;49.516;8.286;2024-03-02T02:30:29;19.77;;;12.27;;
62848;SDS011;48941;49.516;8.286;2024-03-02T02:32:58;19.92;;;13.10;;
62848;SDS011;48941;49.516;8.286;2024-03-02T02:35:26;17.45;;;11.80;;
62848;SDS011;48941;49.516;8.286;2024-03-02T02:37:56;23.33;;;12.55;;
62848;SDS011;48941;49.516;8.286;2024-03-02T02:40:26;20.33;;;12.30;;
62848;SDS011;48941;49.516;8.286;2024-03-02T02:42:55;27.35;;;12.82;;
62848;SDS011;48941;49.516;8.286;2024-03-02T02:45:23;17.70;;;11.52;;
62848;SDS011;48941;49.516;8.286;2024-03-02T02:47:51;18.65;;;10.88;;
62848;SDS011;48941;49.516;8.286;2024-03-02T02:50:19;18.27;;;11.95;;
62848;SDS011;48941;49.516;8.286;2024-03-02T02:52:47;20.52;;;11.32;;
62848;SDS011;48941;49.516;8.286;2024-03-02T02:55:15;19.67;;;11.85;;
62848;SDS011;48941;49.516;8.286;2024-03-02T02:57:44;17.48;;;11.13;;
62848;SDS011;48941;49.516;8.286;2024-03-02T03:00:13;19.10;;;11.52;;
62848;SDS011;48941;49.516;8.286;2024-03-02T03:02:44;18.75;;;11.35;;
62848;SDS011;48941;49.516;8.286;2024-03-02T03:05:15;19.45;;;11.18;;
62848;SDS011;48941;49.516;8.286;2024-03-02T03:07:43;17.85;;;11.35;;
62848;SDS011;48941;49.516;8.286;2024-03-02T03:10:11;19.35;;;11.18;;
62848;SDS011;48941;49.516;8.286;2024-03-02T03:12:41;18.08;;;11.32;;
62848;SDS011;48941;49.516;8.286;2024-03-02T03:15:11;20.25;;;11.75;;
62848;SDS011;48941;49.516;8.286;2024-03-02T03:17:40;20.70;;;12.80;;
62848;SDS011;48941;49.516;8.286;2024-03-02T03:20:08;17.98;;;11.50;;
62848;SDS011;48941;49.516;8.286;2024-03-02T03:22:37;21.55;;;12.05;;
62848;SDS011;48941;49.516;8.286;2024-03-02T03:25:05;18.73;;;12.25;;
62848;SDS011;48941;49.516;8.286;2024-03-02T03:27:35;19.08;;;12.30;;
62848;SDS011;48941;49.516;8.286;2024-03-02T03:30:04;18.75;;;11.68;;
62848;SDS011;48941;49.516;8.286;2024-03-02T03:32:35;22.83;;;12.82;;
62848;SDS011;48941;49.516;8.286;2024-03-02T03:35:03;20.42;;;11.65;;
62848;SDS011;48941;49.516;8.286;2024-03-02T03:37:31;24.20;;;12.70;;
62848;SDS011;48941;49.516;8.286;2024-03-02T03:40:01;29.20;;;13.30;;
62848;SDS011;48941;49.516;8.286;2024-03-02T03:42:36;21.00;;;11.63;;
62848;SDS011;48941;49.516;8.286;2024-03-02T03:45:04;17.98;;;10.70;;
62848;SDS011;48941;49.516;8.286;2024-03-02T03:47:32;20.10;;;11.75;;
62848;SDS011;48941;49.516;8.286;2024-03-02T03:50:02;16.02;;;10.57;;
62848;SDS011;48941;49.516;8.286;2024-03-02T03:52:33;18.33;;;11.85;;
62848;SDS011;48941;49.516;8.286;2024-03-02T03:55:01;16.08;;;10.77;;
62848;SDS011;48941;49.516;8.286;2024-03-02T03:57:29;18.33;;;10.63;;
62848;SDS011;48941;49.516;8.286;2024-03-02T03:59:57;17.65;;;11.20;;
62848;SDS011;48941;49.516;8.286;2024-03-02T04:02:25;17.33;;;11.02;;
62848;SDS011;48941;49.516;8.286;2024-03-02T04:04:54;18.35;;;10.13;;
62848;SDS011;48941;49.516;8.286;2024-03-02T04:07:22;17.35;;;10.80;;
62848;SDS011;48941;49.516;8.286;2024-03-02T04:09:49;19.30;;;10.48;;
62848;SDS011;48941;49.516;8.286;2024-03-02T04:12:17;16.23;;;10.30;;
62848;SDS011;48941;49.516;8.286;2024-03-02T04:14:45;17.08;;;10.18;;
62848;SDS011;48941;49.516;8.286;2024-03-02T04:17:13;20.23;;;10.40;;
62848;SDS011;48941;49.516;8.286;2024-03-02T04:19:41;17.85;;;10.85;;
62848;SDS011;48941;49.516;8.286;2024-03-02T04:22:10;16.50;;;10.70;;
62848;SDS011;48941;49.516;8.286;2024-03-02T04:24:50;15.30;;;9.98;;
62848;SDS011;48941;49.516;8.286;2024-03-02T04:27:18;18.00;;;10.63;;
62848;SDS011;48941;49.516;8.286;2024-03-02T04:29:45;17.90;;;10.35;;
62848;SDS011;48941;49.516;8.286;2024-03-02T04:32:13;17.48;;;10.60;;
62848;SDS011;48941;49.516;8.286;2024-03-02T04:34:41;16.73;;;10.57;;
62848;SDS011;48941;49.516;8.286;2024-03-02T04:37:11;19.20;;;10.75;;
62848;SDS011;48941;49.516;8.286;2024-03-02T04:39:40;15.57;;;10.90;;
62848;SDS011;48941;49.516;8.286;2024-03-02T04:42:08;20.70;;;10.95;;
62848;SDS011;48941;49.516;8.286;2024-03-02T04:44:36;20.83;;;10.68;;
62848;SDS011;48941;49.516;8.286;2024-03-02T04:47:05;17.00;;;10.93;;
62848;SDS011;48941;49.516;8.286;2024-03-02T04:49:33;18.00;;;11.27;;
62848;SDS011;48941;49.516;8.286;2024-03-02T04:52:01;21.42;;;12.63;;
62848;SDS011;48941;49.516;8.286;2024-03-02T04:54:30;16.95;;;11.30;;
62848;SDS011;48941;49.516;8.286;2024-03-02T04:56:58;17.50;;;10.82;;
62848;SDS011;48941;49.516;8.286;2024-03-02T04:59:26;18.83;;;10.60;;
62848;SDS011;48941;49.516;8.286;2024-03-02T05:01:54;19.90;;;11.82;;
62848;SDS011;48941;49.516;8.286;2024-03-02T05:04:21;16.75;;;11.23;;
62848;SDS011;48941;49.516;8.286;2024-03-02T05:06:49;17.70;;;10.98;;
62848;SDS011;48941;49.516;8.286;2024-03-02T05:09:19;20.70;;;11.57;;
62848;SDS011;48941;49.516;8.286;2024-03-02T05:11:49;17.75;;;10.70;;
62848;SDS011;48941;49.516;8.286;2024-03-02T05:14:40;17.85;;;10.07;;
62848;SDS011;48941;49.516;8.286;2024-03-02T05:17:07;15.68;;;10.05;;
62848;SDS011;48941;49.516;8.286;2024-03-02T05:19:35;16.73;;;10.65;;
62848;SDS011;48941;49.516;8.286;2024-03-02T05:22:03;16.58;;;11.05;;
62848;SDS011;48941;49.516;8.286;2024-03-02T05:24:32;18.70;;;11.18;;
62848;SDS011;48941;49.516;8.286;2024-03-02T05:27:01;17.60;;;10.55;;
62848;SDS011;48941;49.516;8.286;2024-03-02T05:29:30;15.50;;;10.20;;
62848;SDS011;48941;49.516;8.286;2024-03-02T05:31:58;17.33;;;10.68;;
62848;SDS011;48941;49.516;8.286;2024-03-02T05:34:25;18.88;;;10.15;;
62848;SDS011;48941;49.516;8.286;2024-03-02T05:36:53;15.18;;;10.05;;
62848;SDS011;48941;49.516;8.286;2024-03-02T05:39:22;15.57;;;10.02;;
62848;SDS011;48941;49.516;8.286;2024-03-02T05:41:50;14.68;;;9.70;;
62848;SDS011;48941;49.516;8.286;2024-03-02T05:44:19;15.32;;;9.32;;
62848;SDS011;48941;49.516;8.286;2024-03-02T05:46:47;15.65;;;9.40;;
62848;SDS011;48941;49.516;8.286;2024-03-02T05:49:15;15.70;;;9.15;;
62848;SDS011;48941;49.516;8.286;2024-03-02T05:51:43;14.45;;;9.75;;
62848;SDS011;48941;49.516;8.286;2024-03-02T05:54:11;14.82;;;10.10;;
62848;SDS011;48941;49.516;8.286;2024-03-02T05:56:38;19.58;;;10.60;;
62848;SDS011;48941;49.516;8.286;2024-03-02T05:59:06;16.10;;;9.85;;
62848;SDS011;48941;49.516;8.286;2024-03-02T06:01:41;14.80;;;9.98;;
62848;SDS011;48941;49.516;8.286;2024-03-02T06:04:09;14.43;;;9.60;;
62848;SDS011;48941;49.516;8.286;2024-03-02T06:06:38;15.52;;;10.38;;
62848;SDS011;48941;49.516;8.286;2024-03-02T06:09:06;14.40;;;9.73;;
62848;SDS011;48941;49.516;8.286;2024-03-02T06:11:34;16.63;;;10.40;;
62848;SDS011;48941;49.516;8.286;2024-03-02T06:14:02;13.48;;;9.35;;
62848;SDS011;48941;49.516;8.286;2024-03-02T06:16:30;15.93;;;9.73;;
62848;SDS011;48941;49.516;8.286;2024-03-02T06:19:00;13.50;;;9.27;;
62848;SDS011;48941;49.516;8.286;2024-03-02T06:21:29;15.32;;;9.48;;
62848;SDS011;48941;49.516;8.286;2024-03-02T06:23:57;15.80;;;9.25;;
62848;SDS011;48941;49.516;8.286;2024-03-02T06:26:25;14.23;;;10.25;;
62848;SDS011;48941;49.516;8.286;2024-03-02T06:28:52;14.45;;;9.95;;
62848;SDS011;48941;49.516;8.286;2024-03-02T06:31:20;21.58;;;10.82;;
62848;SDS011;48941;49.516;8.286;2024-03-02T06:33:48;18.95;;;11.25;;
62848;SDS011;48941;49.516;8.286;2024-03-02T06:36:17;16.65;;;10.63;;
62848;SDS011;48941;49.516;8.286;2024-03-02T06:38:45;13.13;;;9.13;;
62848;SDS011;48941;49.516;8.286;2024-03-02T06:41:13;17.20;;;10.60;;
62848;SDS011;48941;49.516;8.286;2024-03-02T06:43:41;15.13;;;9.40;;
62848;SDS011;48941;49.516;8.286;2024-03-02T06:46:08;18.27;;;10.15;;
62848;SDS011;48941;49.516;8.286;2024-03-02T06:48:40;17.05;;;9.93;;
62848;SDS011;48941;49.516;8.286;2024-03-02T06:51:08;15.55;;;9.48;;
62848;SDS011;48941;49.516;8.286;2024-03-02T06:53:38;14.35;;;9.73;;
62848;SDS011;48941;49.516;8.286;2024-03-02T06:56:06;29.40;;;9.70;;
62848;SDS011;48941;49.516;8.286;2024-03-02T06:58:35;14.75;;;9.00;;
62848;SDS011;48941;49.516;8.286;2024-03-02T07:01:03;14.00;;;9.65;;
62848;SDS011;48941;49.516;8.286;2024-03-02T07:03:31;16.27;;;9.60;;
62848;SDS011;48941;49.516;8.286;2024-03-02T07:05:59;15.68;;;9.88;;
62848;SDS011;48941;49.516;8.286;2024-03-02T07:08:27;15.55;;;10.00;;
62848;SDS011;48941;49.516;8.286;2024-03-02T07:10:56;16.52;;;9.45;;
62848;SDS011;48941;49.516;8.286;2024-03-02T07:13:24;16.58;;;9.52;;
62848;SDS011;48941;49.516;8.286;2024-03-02T07:15:53;13.70;;;8.95;;
62848;SDS011;48941;49.516;8.286;2024-03-02T07:18:38;13.63;;;9.00;;
62848;SDS011;48941;49.516;8.286;2024-03-02T07:21:08;14.05;;;9.23;;
62848;SDS011;48941;49.516;8.286;2024-03-02T07:23:36;13.60;;;9.40;;
62848;SDS011;48941;49.516;8.286;2024-03-02T07:26:05;18.30;;;9.38;;
62848;SDS011;48941;49.516;8.286;2024-03-02T07:28:36;16.23;;;9.70;;
62848;SDS011;48941;49.516;8.286;2024-03-02T07:31:04;15.15;;;9.25;;
62848;SDS011;48941;49.516;8.286;2024-03-02T07:33:32;14.55;;;9.48;;
62848;SDS011;48941;49.516;8.286;2024-03-02T07:36:01;17.13;;;9.60;;
62848;SDS011;48941;49.516;8.286;2024-03-02T07:38:31;14.95;;;9.57;;
62848;SDS011;48941;49.516;8.286;2024-03-02T07:41:00;13.80;;;9.52;;
62848;SDS011;48941;49.516;8.286;2024-03-02T07:43:30;14.38;;;10.43;;
62848;SDS011;48941;49.516;8.286;2024-03-02T07:45:59;20.00;;;12.68;;
62848;SDS011;48941;49.516;8.286;2024-03-02T07:48:27;18.13;;;11.57;;
62848;SDS011;48941;49.516;8.286;2024-03-02T07:50:55;15.27;;;9.93;;
62848;SDS011;48941;49.516;8.286;2024-03-02T07:53:22;17.02;;;10.38;;
62848;SDS011;48941;49.516;8.286;2024-03-02T07:55:50;17.23;;;10.18;;
62848;SDS011;48941;49.516;8.286;2024-03-02T07:58:18;15.85;;;9.88;;
62848;SDS011;48941;49.516;8.286;2024-03-02T08:00:48;18.63;;;10.90;;
62848;SDS011;48941;49.516;8.286;2024-03-02T08:03:20;17.17;;;9.98;;
62848;SDS011;48941;49.516;8.286;2024-03-02T08:05:48;21.23;;;11.27;;
62848;SDS011;48941;49.516;8.286;2024-03-02T08:08:15;17.88;;;10.30;;
62848;SDS011;48941;49.516;8.286;2024-03-02T08:10:43;17.02;;;10.68;;
62848;SDS011;48941;49.516;8.286;2024-03-02T08:13:11;20.80;;;11.52;;
62848;SDS011;48941;49.516;8.286;2024-03-02T08:15:40;31.85;;;11.70;;
62848;SDS011;48941;49.516;8.286;2024-03-02T08:18:09;20.77;;;11.65;;
62848;SDS011;48941;49.516;8.286;2024-03-02T08:20:37;17.92;;;11.27;;
62848;SDS011;48941;49.516;8.286;2024-03-02T08:23:05;20.50;;;11.07;;
62848;SDS011;48941;49.516;8.286;2024-03-02T08:25:33;19.20;;;10.82;;
62848;SDS011;48941;49.516;8.286;2024-03-02T08:28:01;23.40;;;11.10;;
62848;SDS011;48941;49.516;8.286;2024-03-02T08:30:30;20.42;;;10.55;;
62848;SDS011;48941;49.516;8.286;2024-03-02T08:32:58;17.35;;;10.63;;
62848;SDS011;48941;49.516;8.286;2024-03-02T08:35:27;19.92;;;11.98;;
62848;SDS011;48941;49.516;8.286;2024-03-02T08:37:55;20.30;;;11.18;;
62848;SDS011;48941;49.516;8.286;2024-03-02T08:40:23;19.60;;;12.15;;
62848;SDS011;48941;49.516;8.286;2024-03-02T08:42:50;17.35;;;10.40;;
62848;SDS011;48941;49.516;8.286;2024-03-02T08:45:18;17.88;;;10.68;;
62848;SDS011;48941;49.516;8.286;2024-03-02T08:47:47;18.92;;;10.57;;
62848;SDS011;48941;49.516;8.286;2024-03-02T08:50:16;20.38;;;11.00;;
62848;SDS011;48941;49.516;8.286;2024-03-02T08:52:45;18.30;;;10.50;;
62848;SDS011;48941;49.516;8.286;2024-03-02T08:55:13;22.25;;;10.90;;
62848;SDS011;48941;49.516;8.286;2024-03-02T08:57:41;20.23;;;10.25;;
62848;SDS011;48941;49.516;8.286;2024-03-02T09:00:09;16.73;;;10.00;;
62848;SDS011;48941;49.516;8.286;2024-03-02T09:02:38;17.85;;;10.23;;
62848;SDS011;48941;49.516;8.286;2024-03-02T09:05:06;16.85;;;9.05;;
62848;SDS011;48941;49.516;8.286;2024-03-02T09:07:35;15.20;;;8.25;;
62848;SDS011;48941;49.516;8.286;2024-03-02T09:10:07;13.75;;;7.32;;
62848;SDS011;48941;49.516;8.286;2024-03-02T09:12:36;11.15;;;6.75;;
62848;SDS011;48941;49.516;8.286;2024-03-02T09:15:05;14.02;;;7.38;;
62848;SDS011;48941;49.516;8.286;2024-03-02T09:17:33;11.38;;;7.78;;
62848;SDS011;48941;49.516;8.286;2024-03-02T09:20:01;10.73;;;7.30;;
62848;SDS011;48941;49.516;8.286;2024-03-02T09:22:30;12.15;;;8.00;;
62848;SDS011;48941;49.516;8.286;2024-03-02T09:24:58;11.70;;;7.55;;
62848;SDS011;48941;49.516;8.286;2024-03-02T09:27:27;11.18;;;7.25;;
62848;SDS011;48941;49.516;8.286;2024-03-02T09:29:55;10.93;;;7.50;;
62848;SDS011;48941;49.516;8.286;2024-03-02T09:32:23;11.90;;;7.63;;
62848;SDS011;48941;49.516;8.286;2024-03-02T09:34:51;13.02;;;8.00;;
62848;SDS011;48941;49.516;8.286;2024-03-02T09:37:19;12.38;;;6.75;;
62848;SDS011;48941;49.516;8.286;2024-03-02T09:39:47;10.27;;;6.47;;
62848;SDS011;48941;49.516;8.286;2024-03-02T09:42:15;11.60;;;6.60;;
62848;SDS011;48941;49.516;8.286;2024-03-02T09:44:45;9.68;;;6.72;;
62848;SDS011;48941;49.516;8.286;2024-03-02T09:47:14;11.35;;;6.97;;
62848;SDS011;48941;49.516;8.286;2024-03-02T09:49:42;13.40;;;7.32;;
62848;SDS011;48941;49.516;8.286;2024-03-02T09:52:10;11.57;;;7.25;;
62848;SDS011;48941;49.516;8.286;2024-03-02T09:54:38;13.43;;;7.20;;
62848;SDS011;48941;49.516;8.286;2024-03-02T09:57:06;9.13;;;6.55;;
62848;SDS011;48941;49.516;8.286;2024-03-02T09:59:34;10.50;;;7.07;;
62848;SDS011;48941;49.516;8.286;2024-03-02T10:02:03;11.25;;;7.03;;
62848;SDS011;48941;49.516;8.286;2024-03-02T10:04:33;13.18;;;6.63;;
62848;SDS011;48941;49.516;8.286;2024-03-02T10:07:12;11.40;;;6.90;;
62848;SDS011;48941;49.516;8.286;2024-03-02T10:09:41;9.57;;;6.25;;
62848;SDS011;48941;49.516;8.286;2024-03-02T10:12:10;10.77;;;6.57;;
62848;SDS011;48941;49.516;8.286;2024-03-02T10:14:39;9.40;;;6.15;;
62848;SDS011;48941;49.516;8.286;2024-03-02T10:17:12;8.10;;;5.60;;
62848;SDS011;48941;49.516;8.286;2024-03-02T10:19:54;9.18;;;6.15;;
62848;SDS011;48941;49.516;8.286;2024-03-02T10:22:25;10.13;;;6.63;;
62848;SDS011;48941;49.516;8.286;2024-03-02T10:24:53;9.63;;;6.28;;
62848;SDS011;48941;49.516;8.286;2024-03-02T10:27:26;13.25;;;6.20;;
62848;SDS011;48941;49.516;8.286;2024-03-02T10:29:56;8.27;;;5.63;;
62848;SDS011;48941;49.516;8.286;2024-03-02T10:32:25;9.43;;;5.68;;
62848;SDS011;48941;49.516;8.286;2024-03-02T10:34:53;7.45;;;5.60;;
62848;SDS011;48941;49.516;8.286;2024-03-02T10:37:23;10.10;;;5.60;;
62848;SDS011;48941;49.516;8.286;2024-03-02T10:39:51;8.15;;;5.45;;
62848;SDS011;48941;49.516;8.286;2024-03-02T10:42:20;8.30;;;5.70;;
62848;SDS011;48941;49.516;8.286;2024-03-02T10:44:49;10.18;;;7.80;;
62848;SDS011;48941;49.516;8.286;2024-03-02T10:47:18;12.68;;;8.32;;
62848;SDS011;48941;49.516;8.286;2024-03-02T10:49:55;9.13;;;5.82;;
62848;SDS011;48941;49.516;8.286;2024-03-02T10:52:27;7.45;;;5.07;;
62848;SDS011;48941;49.516;8.286;2024-03-02T10:54:55;6.95;;;5.03;;
62848;SDS011;48941;49.516;8.286;2024-03-02T10:57:23;7.90;;;5.32;;
62848;SDS011;48941;49.516;8.286;2024-03-02T10:59:56;8.68;;;5.40;;
62848;SDS011;48941;49.516;8.286;2024-03-02T11:02:24;11.35;;;5.40;;
62848;SDS011;48941;49.516;8.286;2024-03-02T11:04:56;6.93;;;5.13;;
62848;SDS011;48941;49.516;8.286;2024-03-02T11:07:26;8.20;;;6.00;;
62848;SDS011;48941;49.516;8.286;2024-03-02T11:09:57;7.78;;;5.18;;
62848;SDS011;48941;49.516;8.286;2024-03-02T11:12:36;9.95;;;5.60;;
62848;SDS011;48941;49.516;8.286;2024-03-02T11:15:09;7.75;;;5.32;;
62848;SDS011;48941;49.516;8.286;2024-03-02T11:17:38;6.63;;;5.28;;
62848;SDS011;48941;49.516;8.286;2024-03-02T11:20:09;7.38;;;5.18;;
62848;SDS011;48941;49.516;8.286;2024-03-02T11:22:38;8.57;;;5.72;;
62848;SDS011;48941;49.516;8.286;2024-03-02T11:25:06;8.38;;;5.20;;
62848;SDS011;48941;49.516;8.286;2024-03-02T11:28:01;7.03;;;4.90;;
62848;SDS011;48941;49.516;8.286;2024-03-02T11:33:23;9.05;;;5.32;;
62848;SDS011;48941;49.516;8.286;2024-03-02T11:35:59;7.88;;;5.03;;
62848;SDS011;48941;49.516;8.286;2024-03-02T11:38:31;9.23;;;5.10;;
62848;SDS011;48941;49.516;8.286;2024-03-02T11:41:00;9.18;;;4.55;;
62848;SDS011;48941;49.516;8.286;2024-03-02T11:43:29;8.10;;;4.53;;
62848;SDS011;48941;49.516;8.286;2024-03-02T11:45:58;10.38;;;4.55;;
62848;SDS011;48941;49.516;8.286;2024-03-02T11:48:27;6.78;;;4.40;;
62848;SDS011;48941;49.516;8.286;2024-03-02T11:50:54;7.68;;;4.32;;
62848;SDS011;48941;49.516;8.286;2024-03-02T11:55:59;10.18;;;3.95;;
62848;SDS011;48941;49.516;8.286;2024-03-02T11:58:27;3.90;;;3.25;;
62848;SDS011;48941;49.516;8.286;2024-03-02T12:00:55;5.47;;;3.80;;
62848;SDS011;48941;49.516;8.286;2024-03-02T12:03:24;6.15;;;4.40;;
62848;SDS011;48941;49.516;8.286;2024-03-02T12:05:54;8.05;;;4.57;;
62848;SDS011;48941;49.516;8.286;2024-03-02T12:08:24;5.80;;;4.15;;
62848;SDS011;48941;49.516;8.286;2024-03-02T12:10:58;7.30;;;3.88;;
62848;SDS011;48941;49.516;8.286;2024-03-02T12:13:27;6.55;;;4.43;;
62848;SDS011;48941;49.516;8.286;2024-03-02T12:15:55;7.88;;;3.90;;
62848;SDS011;48941;49.516;8.286;2024-03-02T12:18:24;6.20;;;3.92;;
62848;SDS011;48941;49.516;8.286;2024-03-02T12:20:53;5.68;;;3.53;;
62848;SDS011;48941;49.516;8.286;2024-03-02T12:23:25;4.97;;;3.28;;
62848;SDS011;48941;49.516;8.286;2024-03-02T12:25:53;11.75;;;4.50;;
62848;SDS011;48941;49.516;8.286;2024-03-02T12:28:21;5.97;;;3.78;;
62848;SDS011;48941;49.516;8.286;2024-03-02T12:30:49;4.50;;;3.30;;
62848;SDS011;48941;49.516;8.286;2024-03-02T12:33:18;10.13;;;4.72;;
62848;SDS011;48941;49.516;8.286;2024-03-02T12:35:48;6.05;;;3.80;;
62848;SDS011;48941;49.516;8.286;2024-03-02T12:38:16;4.68;;;3.17;;
62848;SDS011;48941;49.516;8.286;2024-03-02T12:40:48;7.20;;;4.43;;
62848;SDS011;48941;49.516;8.286;2024-03-02T12:43:16;8.00;;;4.47;;
62848;SDS011;48941;49.516;8.286;2024-03-02T12:45:44;7.18;;;3.88;;
62848;SDS011;48941;49.516;8.286;2024-03-02T12:48:12;9.10;;;3.70;;
62848;SDS011;48941;49.516;8.286;2024-03-02T12:50:41;5.47;;;3.63;;
62848;SDS011;48941;49.516;8.286;2024-03-02T12:53:13;4.47;;;3.60;;
62848;SDS011;48941;49.516;8.286;2024-03-02T12:58:18;5.28;;;3.67;;
62848;SDS011;48941;49.516;8.286;2024-03-02T13:00:47;5.35;;;3.50;;
62848;SDS011;48941;49.516;8.286;2024-03-02T13:03:17;3.65;;;2.80;;
62848;SDS011;48941;49.516;8.286;2024-03-02T13:05:50;4.07;;;3.10;;
62848;SDS011;48941;49.516;8.286;2024-03-02T13:08:19;4.15;;;2.85;;
62848;SDS011;48941;49.516;8.286;2024-03-02T13:10:47;4.75;;;2.78;;
62848;SDS011;48941;49.516;8.286;2024-03-02T13:13:15;3.97;;;2.78;;
62848;SDS011;48941;49.516;8.286;2024-03-02T13:15:45;3.28;;;2.50;;
62848;SDS011;48941;49.516;8.286;2024-03-02T13:18:13;5.25;;;2.72;;
62848;SDS011;48941;49.516;8.286;2024-03-02T13:20:41;5.97;;;2.78;;
62848;SDS011;48941;49.516;8.286;2024-03-02T13:23:09;2.53;;;2.33;;
62848;SDS011;48941;49.516;8.286;2024-03-02T13:25:37;4.32;;;2.20;;
62848;SDS011;48941;49.516;8.286;2024-03-02T13:28:05;3.10;;;2.38;;
62848;SDS011;48941;49.516;8.286;2024-03-02T13:30:33;2.35;;;1.88;;
62848;SDS011;48941;49.516;8.286;2024-03-02T13:33:03;3.28;;;2.10;;
62848;SDS011;48941;49.516;8.286;2024-03-02T13:35:31;2.22;;;1.95;;
62848;SDS011;48941;49.516;8.286;2024-03-02T13:37:59;1.70;;;1.60;;
62848;SDS011;48941;49.516;8.286;2024-03-02T13:40:26;2.80;;;1.80;;
62848;SDS011;48941;49.516;8.286;2024-03-02T13:42:55;2.42;;;1.48;;
62848;SDS011;48941;49.516;8.286;2024-03-02T13:45:23;1.20;;;1.10;;
62848;SDS011;48941;49.516;8.286;2024-03-02T13:47:51;3.78;;;1.60;;
62848;SDS011;48941;49.516;8.286;2024-03-02T13:50:21;1.90;;;1.30;;
62848;SDS011;48941;49.516;8.286;2024-03-02T13:52:48;1.38;;;1.27;;
62848;SDS011;48941;49.516;8.286;2024-03-02T13:55:16;1.02;;;0.90;;
62848;SDS011;48941;49.516;8.286;2024-03-02T13:57:46;1.00;;;1.00;;
62848;SDS011;48941;49.516;8.286;2024-03-02T14:00:15;1.00;;;0.90;;
62848;SDS011;48941;49.516;8.286;2024-03-02T14:02:43;0.88;;;0.88;;
62848;SDS011;48941;49.516;8.286;2024-03-02T14:05:12;4.05;;;1.27;;
62848;SDS011;48941;49.516;8.286;2024-03-02T14:07:42;2.22;;;1.60;;
62848;SDS011;48941;49.516;8.286;2024-03-02T14:10:10;1.40;;;1.30;;
62848;SDS011;48941;49.516;8.286;2024-03-02T14:12:38;1.27;;;1.17;;
62848;SDS011;48941;49.516;8.286;2024-03-02T14:15:07;1.85;;;1.63;;
62848;SDS011;48941;49.516;8.286;2024-03-02T14:17:35;1.67;;;1.58;;
62848;SDS011;48941;49.516;8.286;2024-03-02T14:20:03;1.92;;;1.40;;
62848;SDS011;48941;49.516;8.286;2024-03-02T14:22:31;2.17;;;1.60;;
62848;SDS011;48941;49.516;8.286;2024-03-02T14:25:01;1.75;;;1.50;;
62848;SDS011;48941;49.516;8.286;2024-03-02T14:27:29;1.70;;;1.50;;
62848;SDS011;48941;49.516;8.286;2024-03-02T14:30:17;3.42;;;1.80;;
62848;SDS011;48941;49.516;8.286;2024-03-02T14:32:45;11.02;;;2.10;;
62848;SDS011;48941;49.516;8.286;2024-03-02T14:35:13;1.92;;;1.75;;
62848;SDS011;48941;49.516;8.286;2024-03-02T14:37:41;2.03;;;1.80;;
62848;SDS011;48941;49.516;8.286;2024-03-02T14:40:11;2.05;;;1.85;;
62848;SDS011;48941;49.516;8.286;2024-03-02T14:42:39;4.20;;;2.30;;
62848;SDS011;48941;49.516;8.286;2024-03-02T14:45:08;2.90;;;2.60;;
62848;SDS011;48941;49.516;8.286;2024-03-02T14:47:36;2.65;;;2.20;;
62848;SDS011;48941;49.516;8.286;2024-03-02T14:50:04;4.25;;;2.50;;
62848;SDS011;48941;49.516;8.286;2024-03-02T14:52:33;4.30;;;3.30;;
62848;SDS011;48941;49.516;8.286;2024-03-02T14:55:01;3.72;;;2.80;;